createdAt,value
2023-02-17T00:00:56.110Z,6.69
2023-02-17T00:03:23.479Z,6.62
2023-02-17T00:05:51.143Z,6.59
2023-02-17T00:08:17.810Z,6.57
2023-02-17T00:10:44.746Z,6.60
2023-02-17T00:13:11.267Z,6.60
2023-02-17T00:15:40.919Z,6.66
2023-02-17T00:18:07.524Z,6.69
2023-02-17T00:20:34.090Z,6.65
2023-02-17T00:23:00.624Z,6.77
2023-02-17T00:25:27.244Z,6.72
2023-02-17T00:27:53.880Z,6.80
2023-02-17T00:30:21.786Z,6.80
2023-02-17T00:32:49.133Z,6.76
2023-02-17T00:35:15.818Z,6.76
2023-02-17T00:37:45.547Z,6.81
2023-02-17T00:40:13.768Z,6.84
2023-02-17T00:42:40.570Z,6.87
2023-02-17T00:45:08.111Z,6.91
2023-02-17T00:47:34.773Z,6.89
2023-02-17T00:50:01.436Z,6.89
2023-02-17T00:52:28.089Z,6.90
2023-02-17T00:54:54.749Z,6.88
2023-02-17T00:57:21.328Z,6.91
2023-02-17T00:59:47.867Z,6.96
2023-02-17T01:02:14.593Z,6.96
2023-02-17T01:04:41.227Z,7.00
2023-02-17T01:07:07.808Z,6.98
2023-02-17T01:09:34.416Z,6.97
2023-02-17T01:12:00.962Z,7.01
2023-02-17T01:14:27.547Z,7.00
2023-02-17T01:16:54.161Z,7.04
2023-02-17T01:19:20.746Z,7.05
2023-02-17T01:21:47.588Z,7.06
2023-02-17T01:24:14.307Z,7.09
2023-02-17T01:26:41.017Z,7.10
2023-02-17T01:29:07.972Z,7.11
2023-02-17T01:31:35.019Z,7.11
2023-02-17T01:34:04.268Z,7.13
2023-02-17T01:36:31.662Z,7.14
2023-02-17T01:38:58.256Z,7.14
2023-02-17T01:41:29.330Z,7.14
2023-02-17T01:44:14.755Z,7.11
2023-02-17T01:46:44.124Z,7.12
2023-02-17T01:49:29.242Z,7.11
2023-02-17T01:52:21.283Z,7.12
2023-02-17T01:55:00.118Z,7.09
2023-02-17T01:57:30.345Z,7.09
2023-02-17T01:59:57.252Z,7.09
2023-02-17T02:02:24.226Z,7.11
2023-02-17T02:04:53.370Z,7.11
2023-02-17T02:07:33.406Z,7.10
2023-02-17T02:10:00.507Z,7.11
2023-02-17T02:12:32.675Z,7.11
2023-02-17T02:15:03.360Z,7.13
2023-02-17T02:17:33.048Z,7.11
2023-02-17T02:20:28.351Z,7.13
2023-02-17T02:23:34.304Z,7.14
2023-02-17T02:26:28.168Z,7.15
2023-02-17T02:29:22.679Z,7.14
2023-02-17T02:32:17.406Z,7.17
2023-02-17T02:35:00.993Z,7.19
2023-02-17T02:37:35.685Z,7.19
2023-02-17T02:40:07.588Z,7.21
2023-02-17T02:42:35.356Z,7.20
2023-02-17T02:45:02.302Z,7.19
2023-02-17T02:47:49.513Z,7.20
2023-02-17T02:50:40.711Z,7.22
2023-02-17T02:53:20.528Z,7.21
2023-02-17T02:56:01.692Z,7.20
2023-02-17T02:58:37.762Z,7.23
2023-02-17T03:01:18.612Z,7.24
2023-02-17T03:04:36.715Z,7.23
2023-02-17T03:07:21.342Z,7.25
2023-02-17T03:09:53.188Z,7.24
2023-02-17T03:12:21.318Z,7.23
2023-02-17T03:14:59.897Z,7.25
2023-02-17T03:17:26.565Z,7.25
2023-02-17T03:19:53.188Z,7.26
2023-02-17T03:22:22.761Z,7.25
2023-02-17T03:24:49.365Z,7.24
2023-02-17T03:27:15.986Z,7.25
2023-02-17T03:29:42.892Z,7.24
2023-02-17T03:32:09.603Z,7.24
2023-02-17T03:34:36.784Z,7.26
2023-02-17T03:37:03.876Z,7.26
2023-02-17T03:39:31.604Z,7.24
2023-02-17T03:41:58.361Z,7.25
2023-02-17T03:44:24.998Z,7.24
2023-02-17T03:46:51.621Z,7.24
2023-02-17T03:49:18.196Z,7.25
2023-02-17T03:51:44.883Z,7.30
2023-02-17T03:54:11.527Z,7.28
2023-02-17T03:56:38.144Z,7.31
2023-02-17T03:59:04.948Z,7.29
2023-02-17T04:01:31.536Z,7.29
2023-02-17T04:03:58.423Z,7.30
2023-02-17T04:06:25.115Z,7.30
2023-02-17T04:08:51.725Z,7.30
2023-02-17T04:11:18.296Z,7.30
2023-02-17T04:13:44.877Z,7.30
2023-02-17T04:16:12.550Z,7.31
2023-02-17T04:18:39.573Z,7.31
2023-02-17T04:21:06.967Z,7.31
2023-02-17T04:23:36.088Z,7.31
2023-02-17T04:26:05.106Z,7.31
2023-02-17T04:28:32.002Z,7.29
2023-02-17T04:30:59.687Z,7.32
2023-02-17T04:33:26.884Z,7.33
2023-02-17T04:35:59.495Z,7.34
2023-02-17T04:38:30.717Z,7.33
2023-02-17T04:40:57.618Z,7.33
2023-02-17T04:43:26.096Z,7.30
2023-02-17T04:45:52.727Z,7.28
2023-02-17T04:48:19.924Z,7.32
2023-02-17T04:50:46.739Z,7.30
2023-02-17T04:53:16.529Z,7.30
2023-02-17T04:55:43.452Z,7.30
2023-02-17T04:58:10.909Z,7.31
2023-02-17T05:00:37.492Z,7.31
2023-02-17T05:03:04.104Z,7.32
2023-02-17T05:05:31.069Z,7.30
2023-02-17T05:07:57.863Z,7.30
2023-02-17T05:10:24.494Z,7.26
2023-02-17T05:12:51.136Z,7.30
2023-02-17T05:15:23.912Z,7.28
2023-02-17T05:17:54.813Z,7.29
2023-02-17T05:20:45.537Z,7.29
2023-02-17T05:23:16.034Z,7.34
2023-02-17T05:25:53.545Z,7.29
2023-02-17T05:28:37.813Z,7.30
2023-02-17T05:31:14.928Z,7.34
2023-02-17T05:33:58.971Z,7.33
2023-02-17T05:36:29.572Z,7.31
2023-02-17T05:39:18.508Z,7.32
2023-02-17T05:41:57.289Z,7.31
2023-02-17T05:44:29.144Z,7.28
2023-02-17T05:47:11.462Z,7.26
2023-02-17T05:49:52.913Z,7.28
2023-02-17T05:52:39.052Z,7.28
2023-02-17T05:55:26.135Z,7.26
2023-02-17T05:58:09.909Z,7.26
2023-02-17T06:00:46.885Z,7.30
2023-02-17T06:03:17.274Z,7.31
2023-02-17T06:06:05.557Z,7.32
2023-02-17T06:08:48.895Z,7.33
2023-02-17T06:11:19.527Z,7.34
2023-02-17T06:13:57.020Z,7.34
2023-02-17T06:16:35.225Z,7.34
2023-02-17T06:19:42.389Z,7.34
2023-02-17T06:22:32.911Z,7.33
2023-02-17T06:25:14.274Z,7.34
2023-02-17T06:27:58.313Z,7.33
2023-02-17T06:30:42.088Z,7.35
2023-02-17T06:33:35.652Z,7.33
2023-02-17T06:36:33.172Z,7.34
2023-02-17T06:39:21.314Z,7.35
2023-02-17T06:41:52.355Z,7.35
2023-02-17T06:44:29.167Z,7.37
2023-02-17T06:47:01.011Z,7.35
2023-02-17T06:49:40.853Z,7.37
2023-02-17T06:52:18.986Z,7.36
2023-02-17T06:57:59.318Z,7.38
2023-02-17T07:00:40.463Z,7.39
2023-02-17T07:03:19.382Z,7.42
2023-02-17T07:06:02.595Z,7.43
2023-02-17T07:08:56.375Z,7.44
2023-02-17T07:11:37.100Z,7.46
2023-02-17T07:14:24.961Z,7.47
2023-02-17T07:17:05.089Z,7.47
2023-02-17T07:19:44.107Z,7.48
2023-02-17T07:22:13.070Z,7.50
2023-02-17T07:24:54.584Z,7.51
2023-02-17T07:27:33.214Z,7.52
2023-02-17T07:30:23.295Z,7.53
2023-02-17T07:32:55.369Z,7.53
2023-02-17T07:35:34.691Z,7.54
2023-02-17T07:38:05.321Z,7.54
2023-02-17T07:40:41.375Z,7.56
2023-02-17T07:43:13.846Z,7.55
2023-02-17T07:46:40.707Z,7.57
2023-02-17T07:48:54.431Z,7.56
2023-02-17T07:51:35.202Z,7.60
2023-02-17T07:54:11.152Z,7.61
2023-02-17T07:56:45.637Z,7.63
2023-02-17T07:59:21.506Z,7.64
2023-02-17T08:01:58.625Z,7.65
2023-02-17T08:04:40.779Z,7.65
2023-02-17T08:07:15.006Z,7.70
2023-02-17T08:10:23.346Z,7.71
2023-02-17T08:13:24.470Z,7.73
2023-02-17T08:15:57.272Z,7.77
2023-02-17T08:18:30.598Z,7.76
2023-02-17T08:21:06.401Z,7.77
2023-02-17T08:23:40.941Z,7.77
2023-02-17T08:26:07.847Z,7.80
2023-02-17T08:28:34.699Z,7.81
2023-02-17T08:31:02.759Z,7.81
2023-02-17T08:33:29.547Z,7.85
2023-02-17T08:35:56.155Z,7.85
2023-02-17T08:38:22.807Z,7.85
2023-02-17T08:40:49.660Z,7.83
2023-02-17T08:43:16.233Z,7.83
2023-02-17T08:45:42.833Z,7.86
2023-02-17T08:48:09.552Z,7.88
2023-02-17T08:50:36.124Z,7.86
2023-02-17T08:53:02.747Z,7.88
2023-02-17T08:55:35.586Z,7.91
2023-02-17T08:58:10.454Z,7.91
2023-02-17T09:00:37.121Z,7.94
2023-02-17T09:03:03.836Z,7.94
2023-02-17T09:05:32.289Z,7.95
2023-02-17T09:07:58.934Z,7.99
2023-02-17T09:10:25.633Z,8.00
2023-02-17T09:12:52.355Z,8.01
2023-02-17T09:15:19.328Z,8.01
2023-02-17T09:17:45.863Z,8.03
2023-02-17T09:20:24.474Z,8.06
2023-02-17T09:22:52.488Z,8.05
2023-02-17T09:25:19.297Z,8.09
2023-02-17T09:27:45.893Z,8.11
2023-02-17T09:30:14.130Z,8.16
2023-02-17T09:32:42.161Z,8.19
2023-02-17T09:35:12.147Z,8.20
2023-02-17T09:37:38.930Z,8.21
2023-02-17T09:40:06.741Z,8.21
2023-02-17T09:42:39.746Z,8.22
2023-02-17T09:45:12.923Z,8.25
2023-02-17T09:47:48.280Z,8.25
2023-02-17T09:50:32.006Z,8.28
2023-02-17T09:53:05.923Z,8.31
2023-02-17T09:55:47.213Z,8.33
2023-02-17T09:58:13.691Z,8.36
2023-02-17T10:00:47.960Z,8.36
2023-02-17T10:03:24.983Z,8.41
2023-02-17T10:06:04.299Z,8.45
2023-02-17T10:08:57.715Z,8.45
2023-02-17T10:11:34.145Z,8.48
2023-02-17T10:14:07.585Z,8.49
2023-02-17T10:16:45.582Z,8.49
2023-02-17T10:19:27.063Z,8.51
2023-02-17T10:22:05.751Z,8.51
2023-02-17T10:24:32.466Z,8.52
2023-02-17T10:27:13.810Z,8.52
2023-02-17T10:29:57.007Z,8.57
2023-02-17T10:32:25.737Z,8.58
2023-02-17T10:35:15.552Z,8.58
2023-02-17T10:38:03.608Z,8.60
2023-02-17T10:40:30.450Z,8.65
2023-02-17T10:43:01.239Z,8.64
2023-02-17T10:45:36.378Z,8.66
2023-02-17T10:48:21.200Z,8.70
2023-02-17T10:50:49.034Z,8.71
2023-02-17T10:53:25.698Z,8.73
2023-02-17T10:56:17.220Z,8.73
2023-02-17T10:59:02.927Z,8.72
2023-02-17T11:01:29.626Z,8.75
2023-02-17T11:04:09.817Z,8.77
2023-02-17T11:06:44.630Z,8.84
2023-02-17T11:09:29.444Z,8.83
2023-02-17T11:12:25.147Z,8.84
2023-02-17T11:14:54.234Z,8.85
2023-02-17T11:17:34.585Z,8.88
2023-02-17T11:20:06.704Z,8.90
2023-02-17T11:22:45.556Z,8.93
2023-02-17T11:25:26.709Z,8.94
2023-02-17T11:27:55.743Z,8.96
2023-02-17T11:30:23.623Z,8.97
2023-02-17T11:32:50.772Z,9.00
2023-02-17T11:35:27.949Z,9.04
2023-02-17T11:38:12.219Z,9.02
2023-02-17T11:40:39.266Z,9.04
2023-02-17T11:43:06.681Z,9.07
2023-02-17T11:46:04.978Z,9.09
2023-02-17T11:48:41.472Z,9.14
2023-02-17T11:51:48.326Z,9.16
2023-02-17T11:54:29.506Z,9.13
2023-02-17T11:57:03.149Z,9.18
2023-02-17T11:59:43.023Z,9.22
2023-02-17T12:02:31.257Z,9.29
2023-02-17T12:05:10.833Z,9.31
2023-02-17T12:07:47.113Z,9.34
2023-02-17T12:10:25.620Z,9.35
2023-02-17T12:13:17.010Z,9.42
2023-02-17T12:15:43.599Z,9.40
2023-02-17T12:18:28.615Z,9.38
2023-02-17T12:21:03.474Z,9.39
2023-02-17T12:23:55.019Z,9.39
2023-02-17T12:26:36.288Z,9.42
2023-02-17T12:29:21.577Z,9.48
2023-02-17T12:32:10.446Z,9.48
2023-02-17T12:34:42.554Z,9.52
2023-02-17T12:37:19.237Z,9.52
2023-02-17T12:39:54.770Z,9.54
2023-02-17T12:42:31.618Z,9.56
2023-02-17T12:45:05.292Z,9.60
2023-02-17T12:47:51.931Z,9.62
2023-02-17T12:50:28.164Z,9.67
2023-02-17T12:53:03.051Z,9.66
2023-02-17T12:55:40.540Z,9.70
2023-02-17T12:58:18.298Z,9.68
2023-02-17T13:00:50.761Z,9.74
2023-02-17T13:03:21.045Z,9.75
2023-02-17T13:06:15.018Z,9.78
2023-02-17T13:08:58.243Z,9.82
2023-02-17T13:11:35.613Z,9.84
2023-02-17T13:14:23.508Z,9.87
2023-02-17T13:16:50.123Z,9.86
2023-02-17T13:19:31.863Z,9.86
2023-02-17T13:22:02.255Z,9.78
2023-02-17T13:24:33.537Z,9.81
2023-02-17T13:27:33.345Z,9.82
2023-02-17T13:30:17.049Z,9.84
2023-02-17T13:32:44.762Z,9.80
2023-02-17T13:35:14.355Z,9.76
2023-02-17T13:37:44.551Z,9.75
2023-02-17T13:40:17.996Z,9.74
2023-02-17T13:42:49.494Z,9.74
2023-02-17T13:45:27.850Z,9.72
2023-02-17T13:48:00.388Z,9.73
2023-02-17T13:50:35.996Z,9.71
2023-02-17T13:53:25.012Z,9.73
2023-02-17T13:55:53.018Z,9.66
2023-02-17T13:58:29.141Z,9.66
2023-02-17T14:00:57.056Z,9.66
2023-02-17T14:03:34.589Z,9.67
2023-02-17T14:06:02.653Z,9.66
2023-02-17T14:08:32.161Z,9.64
2023-02-17T14:11:19.904Z,9.64
2023-02-17T14:13:48.944Z,9.63
2023-02-17T14:16:37.910Z,9.57
2023-02-17T14:19:06.682Z,9.56
2023-02-17T14:21:34.583Z,9.57
2023-02-17T14:24:01.705Z,9.55
2023-02-17T14:26:46.399Z,9.54
2023-02-17T14:29:14.258Z,9.54
2023-02-17T14:31:50.437Z,9.52
2023-02-17T14:34:32.385Z,9.50
2023-02-17T14:37:21.007Z,9.48
2023-02-17T14:39:47.594Z,9.44
2023-02-17T14:42:14.177Z,9.45
2023-02-17T14:44:40.835Z,9.43
2023-02-17T14:47:07.417Z,9.39
2023-02-17T14:49:34.021Z,9.38
2023-02-17T14:52:12.847Z,9.39
2023-02-17T14:54:39.405Z,9.41
2023-02-17T14:57:07.932Z,9.43
2023-02-17T14:59:34.622Z,9.46
2023-02-17T15:02:01.365Z,9.42
2023-02-17T15:04:28.042Z,9.44
2023-02-17T15:06:54.908Z,9.42
2023-02-17T15:09:28.736Z,9.39
2023-02-17T15:11:56.390Z,9.41
2023-02-17T15:14:23.539Z,9.38
2023-02-17T15:16:51.475Z,9.39
2023-02-17T15:19:18.192Z,9.35
2023-02-17T15:21:48.667Z,9.33
2023-02-17T15:24:23.193Z,9.34
2023-02-17T15:26:50.285Z,9.32
2023-02-17T15:29:20.328Z,9.36
2023-02-17T15:31:47.676Z,9.33
2023-02-17T15:34:19.995Z,9.32
2023-02-17T15:36:47.499Z,9.33
2023-02-17T15:39:18.983Z,9.31
2023-02-17T15:41:47.454Z,9.25
2023-02-17T15:44:20.896Z,9.24
2023-02-17T15:46:50.262Z,9.19
2023-02-17T15:49:17.336Z,9.18
2023-02-17T15:51:43.982Z,9.17
2023-02-17T15:54:10.539Z,9.16
2023-02-17T15:56:45.827Z,9.14
2023-02-17T15:59:18.636Z,9.17
2023-02-17T16:01:45.419Z,9.11
2023-02-17T16:04:13.764Z,9.11
2023-02-17T16:06:41.444Z,9.10
2023-02-17T16:09:08.096Z,9.09
2023-02-17T16:11:35.971Z,9.02
2023-02-17T16:14:02.536Z,9.01
2023-02-17T16:16:32.951Z,9.02
2023-02-17T16:19:00.608Z,9.03
2023-02-17T16:21:27.468Z,8.94
2023-02-17T16:23:59.048Z,8.93
2023-02-17T16:26:29.364Z,8.96
2023-02-17T16:28:56.176Z,8.95
2023-02-17T16:31:23.747Z,8.94
2023-02-17T16:33:51.729Z,8.94
2023-02-17T16:36:20.858Z,8.88
2023-02-17T16:38:51.044Z,8.88
2023-02-17T16:41:20.343Z,8.89
2023-02-17T16:43:47.448Z,8.88
2023-02-17T16:46:30.218Z,8.87
2023-02-17T16:48:58.545Z,8.86
2023-02-17T16:51:25.195Z,8.84
2023-02-17T16:53:52.097Z,8.85
2023-02-17T16:56:36.647Z,8.85
2023-02-17T16:59:03.573Z,8.86
2023-02-17T17:01:30.092Z,8.85
2023-02-17T17:03:56.654Z,8.84
2023-02-17T17:06:29.735Z,8.83
2023-02-17T17:08:56.817Z,8.82
2023-02-17T17:11:25.684Z,8.82
2023-02-17T17:13:53.034Z,8.82
2023-02-17T17:16:23.106Z,8.83
2023-02-17T17:18:49.697Z,8.82
2023-02-17T17:21:18.408Z,8.82
2023-02-17T17:23:46.413Z,8.82
2023-02-17T17:26:28.752Z,8.84
2023-02-17T17:28:55.423Z,8.82
2023-02-17T17:31:22.432Z,8.84
2023-02-17T17:33:50.833Z,8.86
2023-02-17T17:36:32.617Z,8.87
2023-02-17T17:39:00.768Z,8.85
2023-02-17T17:41:29.358Z,8.86
2023-02-17T17:43:57.522Z,8.84
2023-02-17T17:46:28.406Z,8.81
2023-02-17T17:48:56.185Z,8.79
2023-02-17T17:51:23.585Z,8.80
2023-02-17T17:53:50.449Z,8.76
2023-02-17T17:56:26.522Z,8.77
2023-02-17T17:58:53.911Z,8.76
2023-02-17T18:01:21.796Z,8.77
2023-02-17T18:03:49.184Z,8.79
2023-02-17T18:06:19.407Z,8.79
2023-02-17T18:08:48.265Z,8.82
2023-02-17T18:11:17.732Z,8.81
2023-02-17T18:13:47.474Z,8.81
2023-02-17T18:16:14.584Z,8.81
2023-02-17T18:18:41.343Z,8.80
2023-02-17T18:21:08.029Z,8.82
2023-02-17T18:23:34.594Z,8.82
2023-02-17T18:26:01.493Z,8.77
2023-02-17T18:28:29.169Z,8.85
2023-02-17T18:30:56.971Z,8.84
2023-02-17T18:33:23.759Z,8.86
2023-02-17T18:35:50.576Z,8.85
2023-02-17T18:38:17.204Z,8.86
2023-02-17T18:40:43.804Z,8.88
2023-02-17T18:43:10.563Z,8.87
2023-02-17T18:45:37.212Z,8.87
2023-02-17T18:48:03.932Z,8.90
2023-02-17T18:50:33.147Z,8.93
2023-02-17T18:53:00.374Z,8.93
2023-02-17T18:55:27.034Z,8.94
2023-02-17T18:57:54.144Z,8.94
2023-02-17T19:00:20.820Z,8.95
2023-02-17T19:02:47.630Z,8.95
2023-02-17T19:05:14.587Z,9.02
2023-02-17T19:07:41.255Z,9.02
2023-02-17T19:10:08.582Z,9.01
2023-02-17T19:12:35.667Z,8.96
2023-02-17T19:15:02.247Z,8.99
2023-02-17T19:17:28.821Z,9.01
2023-02-17T19:19:55.440Z,9.02
2023-02-17T19:22:22.021Z,9.00
2023-02-17T19:24:53.631Z,9.01
2023-02-17T19:27:20.743Z,9.03
2023-02-17T19:29:47.387Z,9.01
2023-02-17T19:32:14.013Z,9.06
2023-02-17T19:34:40.613Z,9.06
2023-02-17T19:37:07.140Z,9.04
2023-02-17T19:39:36.170Z,9.07
2023-02-17T19:42:03.450Z,9.07
2023-02-17T19:44:33.022Z,9.07
2023-02-17T19:46:59.875Z,9.06
2023-02-17T19:49:26.697Z,9.05
2023-02-17T19:51:55.770Z,9.07
2023-02-17T19:54:23.265Z,9.05
2023-02-17T19:56:50.400Z,9.07
2023-02-17T19:59:16.997Z,9.06
2023-02-17T20:01:43.660Z,9.03
2023-02-17T20:04:10.960Z,9.03
2023-02-17T20:06:47.621Z,9.02
2023-02-17T20:09:20.836Z,9.01
2023-02-17T20:11:49.066Z,8.99
2023-02-17T20:14:15.666Z,9.00
2023-02-17T20:16:42.305Z,8.99
2023-02-17T20:19:08.877Z,8.99
2023-02-17T20:21:38.387Z,8.98
2023-02-17T20:24:05.766Z,8.95
2023-02-17T20:26:38.077Z,8.95
2023-02-17T20:29:04.672Z,8.94
2023-02-17T20:31:31.718Z,8.93
2023-02-17T20:33:58.360Z,8.92
2023-02-17T20:36:25.202Z,8.92
2023-02-17T20:38:51.986Z,8.93
2023-02-17T20:41:21.170Z,8.94
2023-02-17T20:43:48.542Z,8.94
2023-02-17T20:46:23.479Z,8.94
2023-02-17T20:48:50.283Z,8.95
2023-02-17T20:51:16.887Z,8.95
2023-02-17T20:53:43.495Z,8.98
2023-02-17T20:56:19.031Z,8.99
2023-02-17T20:58:47.213Z,8.96
2023-02-17T21:01:14.257Z,8.95
2023-02-17T21:03:40.866Z,8.94
2023-02-17T21:06:25.020Z,9.00
2023-02-17T21:08:54.864Z,8.99
2023-02-17T21:11:21.668Z,9.00
2023-02-17T21:13:48.943Z,9.00
2023-02-17T21:16:18.817Z,9.01
2023-02-17T21:18:47.046Z,9.00
2023-02-17T21:21:14.048Z,9.01
2023-02-17T21:23:40.668Z,8.99
2023-02-17T21:26:09.397Z,9.00
2023-02-17T21:28:36.135Z,9.00
2023-02-17T21:31:03.509Z,9.01
2023-02-17T21:33:30.294Z,9.01
2023-02-17T21:35:57.531Z,9.04
2023-02-17T21:38:24.409Z,9.05
2023-02-17T21:40:51.028Z,9.05
2023-02-17T21:43:38.106Z,9.03
2023-02-17T21:46:09.895Z,9.07
2023-02-17T21:48:38.348Z,9.05
2023-02-17T21:51:09.329Z,9.05
2023-02-17T21:53:36.554Z,9.07
2023-02-17T21:56:04.544Z,9.07
2023-02-17T21:58:31.835Z,9.09
2023-02-17T22:00:59.247Z,9.09
2023-02-17T22:03:25.938Z,9.07
2023-02-17T22:05:52.540Z,9.07
2023-02-17T22:08:19.181Z,9.08
2023-02-17T22:10:45.789Z,9.06
2023-02-17T22:13:12.321Z,9.07
2023-02-17T22:15:38.954Z,9.09
2023-02-17T22:18:05.594Z,9.08
2023-02-17T22:20:32.458Z,9.08
2023-02-17T22:22:59.417Z,9.10
2023-02-17T22:25:25.996Z,9.11
2023-02-17T22:27:52.623Z,9.07
2023-02-17T22:30:19.323Z,9.10
2023-02-17T22:32:45.973Z,9.10
2023-02-17T22:35:14.170Z,9.11
2023-02-17T22:37:40.738Z,9.09
2023-02-17T22:40:08.154Z,9.07
2023-02-17T22:42:34.683Z,9.07
2023-02-17T22:45:01.256Z,9.06
2023-02-17T22:47:27.850Z,9.05
2023-02-17T22:49:54.422Z,9.07
2023-02-17T22:52:21.022Z,9.07
2023-02-17T22:54:48.442Z,9.05
2023-02-17T22:57:14.953Z,9.06
2023-02-17T22:59:41.537Z,9.06
2023-02-17T23:02:08.087Z,9.05
2023-02-17T23:04:34.676Z,9.07
2023-02-17T23:07:01.277Z,9.07
2023-02-17T23:09:27.872Z,9.07
2023-02-17T23:11:54.640Z,9.08
2023-02-17T23:14:28.088Z,9.07
2023-02-17T23:16:58.898Z,9.08
2023-02-17T23:19:26.152Z,9.06
2023-02-17T23:21:56.167Z,9.05
2023-02-17T23:24:23.919Z,9.05
2023-02-17T23:26:51.535Z,9.02
2023-02-17T23:29:18.218Z,9.02
2023-02-17T23:31:45.359Z,8.98
2023-02-17T23:34:13.628Z,8.97
2023-02-17T23:36:41.873Z,8.98
2023-02-17T23:39:09.370Z,8.97
2023-02-17T23:41:37.752Z,8.96
2023-02-17T23:44:05.424Z,8.96
2023-02-17T23:46:32.121Z,8.95
2023-02-17T23:48:58.773Z,8.92
2023-02-17T23:51:25.487Z,8.91
2023-02-17T23:53:52.253Z,8.90
2023-02-17T23:56:25.962Z,8.90
2023-02-17T23:58:52.749Z,8.88
